sensor_id;sensor_type;location;lat;lon;timestamp;pressure;altitude;pressure_sealevel;temperature;humidity
61035;BME280;46916;40.564;-7.958;2023-02-28T00:01:02;97709.06;;;5.75;47.50
61035;BME280;46916;40.564;-7.958;2023-02-28T00:03:03;97714.28;;;5.60;47.53
61035;BME280;46916;40.564;-7.958;2023-02-28T00:05:04;97719.81;;;5.54;48.16
61035;BME280;46916;40.564;-7.958;2023-02-28T00:07:05;97726.13;;;5.50;48.18
61035;BME280;46916;40.564;-7.958;2023-02-28T00:09:06;97730.41;;;5.51;48.21
61035;BME280;46916;40.564;-7.958;2023-02-28T00:11:09;97725.47;;;5.46;47.59
61035;BME280;46916;40.564;-7.958;2023-02-28T00:13:10;97729.56;;;5.51;47.50
61035;BME280;46916;40.564;-7.958;2023-02-28T00:15:11;97725.09;;;5.38;47.34
61035;BME280;46916;40.564;-7.958;2023-02-28T00:17:12;97732.03;;;5.38;48.14
61035;BME280;46916;40.564;-7.958;2023-02-28T00:19:12;97733.25;;;5.32;47.91
61035;BME280;46916;40.564;-7.958;2023-02-28T00:21:14;97722.31;;;5.27;47.75
61035;BME280;46916;40.564;-7.958;2023-02-28T00:23:15;97729.81;;;5.32;47.48
61035;BME280;46916;40.564;-7.958;2023-02-28T00:25:18;97734.78;;;5.20;47.35
61035;BME280;46916;40.564;-7.958;2023-02-28T00:27:19;97733.69;;;5.25;47.14
61035;BME280;46916;40.564;-7.958;2023-02-28T00:29:20;97733.84;;;5.07;46.92
61035;BME280;46916;40.564;-7.958;2023-02-28T00:31:21;97741.97;;;5.01;47.83
61035;BME280;46916;40.564;-7.958;2023-02-28T00:33:22;97738.75;;;5.12;46.96
61035;BME280;46916;40.564;-7.958;2023-02-28T00:35:23;97725.88;;;5.10;45.76
61035;BME280;46916;40.564;-7.958;2023-02-28T00:37:23;97724.94;;;5.11;45.60
61035;BME280;46916;40.564;-7.958;2023-02-28T00:39:24;97742.09;;;5.14;45.34
61035;BME280;46916;40.564;-7.958;2023-02-28T00:41:25;97746.25;;;5.02;45.49
61035;BME280;46916;40.564;-7.958;2023-02-28T00:43:25;97749.09;;;4.97;44.80
61035;BME280;46916;40.564;-7.958;2023-02-28T00:45:26;97745.50;;;5.00;44.83
61035;BME280;46916;40.564;-7.958;2023-02-28T00:47:27;97751.91;;;5.09;44.67
61035;BME280;46916;40.564;-7.958;2023-02-28T00:49:27;97750.53;;;5.03;44.23
61035;BME280;46916;40.564;-7.958;2023-02-28T00:51:28;97758.56;;;4.99;44.08
61035;BME280;46916;40.564;-7.958;2023-02-28T00:53:31;97761.06;;;5.00;43.35
61035;BME280;46916;40.564;-7.958;2023-02-28T00:55:33;97760.91;;;5.03;43.51
61035;BME280;46916;40.564;-7.958;2023-02-28T00:57:33;97763.00;;;4.96;44.36
61035;BME280;46916;40.564;-7.958;2023-02-28T00:59:35;97773.31;;;4.98;43.54
61035;BME280;46916;40.564;-7.958;2023-02-28T01:01:35;97778.72;;;4.93;43.95
61035;BME280;46916;40.564;-7.958;2023-02-28T01:03:36;97770.47;;;4.87;43.95
61035;BME280;46916;40.564;-7.958;2023-02-28T01:05:37;97770.81;;;4.81;43.60
61035;BME280;46916;40.564;-7.958;2023-02-28T01:07:37;97773.22;;;4.84;43.17
61035;BME280;46916;40.564;-7.958;2023-02-28T01:09:38;97767.63;;;4.76;43.29
61035;BME280;46916;40.564;-7.958;2023-02-28T01:11:39;97770.63;;;4.84;43.57
61035;BME280;46916;40.564;-7.958;2023-02-28T01:13:43;97762.28;;;4.79;43.45
61035;BME280;46916;40.564;-7.958;2023-02-28T01:15:51;97764.13;;;4.77;43.19
61035;BME280;46916;40.564;-7.958;2023-02-28T01:17:53;97765.22;;;4.72;43.50
61035;BME280;46916;40.564;-7.958;2023-02-28T01:19:55;97763.53;;;4.71;43.18
61035;BME280;46916;40.564;-7.958;2023-02-28T01:22:05;97772.09;;;4.74;43.23
61035;BME280;46916;40.564;-7.958;2023-02-28T01:24:06;97769.91;;;4.66;42.98
61035;BME280;46916;40.564;-7.958;2023-02-28T01:26:20;97773.59;;;4.62;43.24
61035;BME280;46916;40.564;-7.958;2023-02-28T01:28:21;97768.16;;;4.66;42.75
61035;BME280;46916;40.564;-7.958;2023-02-28T01:30:22;97763.13;;;4.63;43.14
61035;BME280;46916;40.564;-7.958;2023-02-28T01:32:22;97759.28;;;4.55;43.13
61035;BME280;46916;40.564;-7.958;2023-02-28T01:34:24;97758.88;;;4.62;42.89
61035;BME280;46916;40.564;-7.958;2023-02-28T01:36:25;97760.22;;;4.54;43.15
61035;BME280;46916;40.564;-7.958;2023-02-28T01:38:26;97768.25;;;4.49;43.55
61035;BME280;46916;40.564;-7.958;2023-02-28T01:40:28;97764.47;;;4.55;42.68
61035;BME280;46916;40.564;-7.958;2023-02-28T01:42:29;97763.47;;;4.57;42.62
61035;BME280;46916;40.564;-7.958;2023-02-28T01:46:59;97752.09;;;4.44;43.23
61035;BME280;46916;40.564;-7.958;2023-02-28T01:49:14;97748.66;;;4.43;43.13
61035;BME280;46916;40.564;-7.958;2023-02-28T01:51:46;97753.69;;;4.46;43.17
61035;BME280;46916;40.564;-7.958;2023-02-28T01:53:53;97758.03;;;4.46;43.30
61035;BME280;46916;40.564;-7.958;2023-02-28T01:55:56;97742.31;;;4.49;42.73
61035;BME280;46916;40.564;-7.958;2023-02-28T01:58:00;97748.41;;;4.48;42.94
61035;BME280;46916;40.564;-7.958;2023-02-28T02:00:06;97741.81;;;4.42;43.36
61035;BME280;46916;40.564;-7.958;2023-02-28T02:02:14;97749.59;;;4.42;43.19
61035;BME280;46916;40.564;-7.958;2023-02-28T02:04:15;97751.25;;;4.43;42.94
61035;BME280;46916;40.564;-7.958;2023-02-28T02:06:16;97748.41;;;4.48;42.95
61035;BME280;46916;40.564;-7.958;2023-02-28T02:08:28;97751.41;;;4.40;43.22
61035;BME280;46916;40.564;-7.958;2023-02-28T02:13:08;97761.22;;;4.35;43.52
61035;BME280;46916;40.564;-7.958;2023-02-28T02:15:24;97769.56;;;4.40;42.98
61035;BME280;46916;40.564;-7.958;2023-02-28T02:17:55;97757.78;;;4.35;43.07
61035;BME280;46916;40.564;-7.958;2023-02-28T02:20:22;97764.16;;;4.29;43.37
61035;BME280;46916;40.564;-7.958;2023-02-28T02:23:02;97766.91;;;4.26;43.25
61035;BME280;46916;40.564;-7.958;2023-02-28T02:25:28;97769.41;;;4.28;43.40
61035;BME280;46916;40.564;-7.958;2023-02-28T02:30:40;97772.91;;;4.27;43.22
61035;BME280;46916;40.564;-7.958;2023-02-28T02:33:05;97778.59;;;4.17;43.57
61035;BME280;46916;40.564;-7.958;2023-02-28T02:35:31;97784.09;;;4.11;43.18
61035;BME280;46916;40.564;-7.958;2023-02-28T02:40:16;97794.00;;;4.20;44.09
61035;BME280;46916;40.564;-7.958;2023-02-28T02:42:41;97794.59;;;4.26;43.81
61035;BME280;46916;40.564;-7.958;2023-02-28T02:44:50;97794.84;;;4.21;43.36
61035;BME280;46916;40.564;-7.958;2023-02-28T02:46:59;97801.59;;;4.23;43.76
61035;BME280;46916;40.564;-7.958;2023-02-28T02:49:08;97803.88;;;4.30;43.42
61035;BME280;46916;40.564;-7.958;2023-02-28T02:51:14;97804.84;;;4.27;43.85
61035;BME280;46916;40.564;-7.958;2023-02-28T02:53:19;97802.94;;;4.31;43.80
61035;BME280;46916;40.564;-7.958;2023-02-28T02:55:22;97820.84;;;4.35;43.51
61035;BME280;46916;40.564;-7.958;2023-02-28T02:57:35;97820.00;;;4.35;42.91
61035;BME280;46916;40.564;-7.958;2023-02-28T02:59:40;97823.53;;;4.34;43.04
61035;BME280;46916;40.564;-7.958;2023-02-28T03:01:41;97822.50;;;4.36;43.08
61035;BME280;46916;40.564;-7.958;2023-02-28T03:03:42;97825.09;;;4.36;43.65
61035;BME280;46916;40.564;-7.958;2023-02-28T03:05:48;97834.84;;;4.33;43.05
61035;BME280;46916;40.564;-7.958;2023-02-28T03:07:50;97827.06;;;4.33;43.54
61035;BME280;46916;40.564;-7.958;2023-02-28T03:09:54;97822.44;;;4.38;43.38
61035;BME280;46916;40.564;-7.958;2023-02-28T03:11:56;97817.25;;;4.38;43.96
61035;BME280;46916;40.564;-7.958;2023-02-28T03:18:49;97812.50;;;4.46;43.60
61035;BME280;46916;40.564;-7.958;2023-02-28T03:21:46;97814.34;;;4.44;43.86
61035;BME280;46916;40.564;-7.958;2023-02-28T03:23:48;97818.78;;;4.42;43.55
61035;BME280;46916;40.564;-7.958;2023-02-28T03:26:00;97806.63;;;4.42;44.03
61035;BME280;46916;40.564;-7.958;2023-02-28T03:30:29;97808.00;;;4.50;43.17
61035;BME280;46916;40.564;-7.958;2023-02-28T03:32:44;97800.47;;;4.45;43.19
61035;BME280;46916;40.564;-7.958;2023-02-28T03:35:02;97797.00;;;4.44;43.53
61035;BME280;46916;40.564;-7.958;2023-02-28T03:37:13;97798.34;;;4.52;43.85
61035;BME280;46916;40.564;-7.958;2023-02-28T03:39:36;97791.41;;;4.52;43.72
61035;BME280;46916;40.564;-7.958;2023-02-28T03:41:42;97780.13;;;4.53;43.48
61035;BME280;46916;40.564;-7.958;2023-02-28T03:44:09;97784.97;;;4.43;44.12
61035;BME280;46916;40.564;-7.958;2023-02-28T03:46:19;97776.59;;;4.38;43.71
61035;BME280;46916;40.564;-7.958;2023-02-28T03:48:30;97774.16;;;4.35;43.32
61035;BME280;46916;40.564;-7.958;2023-02-28T03:50:41;97776.19;;;4.30;44.12
61035;BME280;46916;40.564;-7.958;2023-02-28T03:52:48;97769.06;;;4.34;44.06
61035;BME280;46916;40.564;-7.958;2023-02-28T03:54:53;97775.34;;;4.30;44.10
61035;BME280;46916;40.564;-7.958;2023-02-28T03:59:39;97762.13;;;4.18;44.64
61035;BME280;46916;40.564;-7.958;2023-02-28T04:01:44;97751.06;;;4.15;44.76
61035;BME280;46916;40.564;-7.958;2023-02-28T04:03:46;97752.94;;;4.13;44.59
61035;BME280;46916;40.564;-7.958;2023-02-28T04:05:54;97749.66;;;4.09;44.75
61035;BME280;46916;40.564;-7.958;2023-02-28T04:08:06;97748.63;;;4.12;44.51
61035;BME280;46916;40.564;-7.958;2023-02-28T04:10:07;97744.63;;;4.06;45.10
61035;BME280;46916;40.564;-7.958;2023-02-28T04:12:08;97741.19;;;4.06;44.62
61035;BME280;46916;40.564;-7.958;2023-02-28T04:14:10;97737.78;;;4.05;44.72
61035;BME280;46916;40.564;-7.958;2023-02-28T04:16:11;97748.63;;;3.96;44.79
61035;BME280;46916;40.564;-7.958;2023-02-28T04:18:12;97742.34;;;3.84;44.97
61035;BME280;46916;40.564;-7.958;2023-02-28T04:20:13;97756.88;;;3.87;44.89
61035;BME280;46916;40.564;-7.958;2023-02-28T04:22:13;97743.91;;;3.87;44.76
61035;BME280;46916;40.564;-7.958;2023-02-28T04:24:20;97750.84;;;3.86;45.13
61035;BME280;46916;40.564;-7.958;2023-02-28T04:26:21;97749.03;;;3.88;45.33
61035;BME280;46916;40.564;-7.958;2023-02-28T04:28:21;97757.66;;;3.89;45.33
61035;BME280;46916;40.564;-7.958;2023-02-28T04:30:22;97756.72;;;3.90;45.11
61035;BME280;46916;40.564;-7.958;2023-02-28T04:32:23;97759.72;;;3.82;45.07
61035;BME280;46916;40.564;-7.958;2023-02-28T04:34:24;97759.81;;;3.81;45.84
61035;BME280;46916;40.564;-7.958;2023-02-28T04:36:26;97760.72;;;3.80;45.73
61035;BME280;46916;40.564;-7.958;2023-02-28T04:38:26;97765.56;;;3.86;45.45
61035;BME280;46916;40.564;-7.958;2023-02-28T04:40:27;97760.09;;;3.92;45.57
61035;BME280;46916;40.564;-7.958;2023-02-28T04:42:28;97757.72;;;3.87;45.69
61035;BME280;46916;40.564;-7.958;2023-02-28T04:44:35;97762.06;;;3.87;45.25
61035;BME280;46916;40.564;-7.958;2023-02-28T04:46:36;97767.47;;;3.82;45.79
61035;BME280;46916;40.564;-7.958;2023-02-28T04:48:38;97762.38;;;3.81;46.24
61035;BME280;46916;40.564;-7.958;2023-02-28T04:50:40;97776.28;;;3.80;46.19
61035;BME280;46916;40.564;-7.958;2023-02-28T04:52:40;97774.41;;;3.82;45.72
61035;BME280;46916;40.564;-7.958;2023-02-28T04:54:41;97786.31;;;3.86;45.74
61035;BME280;46916;40.564;-7.958;2023-02-28T04:56:42;97784.19;;;3.77;46.09
61035;BME280;46916;40.564;-7.958;2023-02-28T04:58:43;97784.25;;;3.75;46.08
61035;BME280;46916;40.564;-7.958;2023-02-28T05:00:44;97781.44;;;3.80;46.19
61035;BME280;46916;40.564;-7.958;2023-02-28T05:02:44;97788.97;;;3.84;45.89
61035;BME280;46916;40.564;-7.958;2023-02-28T05:04:45;97785.84;;;3.78;46.02
61035;BME280;46916;40.564;-7.958;2023-02-28T05:06:46;97793.88;;;3.73;46.09
61035;BME280;46916;40.564;-7.958;2023-02-28T05:08:47;97800.66;;;3.76;46.72
61035;BME280;46916;40.564;-7.958;2023-02-28T05:10:47;97811.91;;;3.75;46.68
61035;BME280;46916;40.564;-7.958;2023-02-28T05:12:48;97810.94;;;3.77;46.46
61035;BME280;46916;40.564;-7.958;2023-02-28T05:14:49;97825.41;;;3.81;46.38
61035;BME280;46916;40.564;-7.958;2023-02-28T05:16:50;97827.16;;;3.81;46.57
61035;BME280;46916;40.564;-7.958;2023-02-28T05:18:50;97835.69;;;3.83;46.59
61035;BME280;46916;40.564;-7.958;2023-02-28T05:20:51;97836.38;;;3.86;46.56
61035;BME280;46916;40.564;-7.958;2023-02-28T05:22:52;97833.72;;;3.88;46.61
61035;BME280;46916;40.564;-7.958;2023-02-28T05:24:53;97834.31;;;3.93;46.96
61035;BME280;46916;40.564;-7.958;2023-02-28T05:26:54;97845.50;;;3.93;46.54
61035;BME280;46916;40.564;-7.958;2023-02-28T05:28:55;97837.66;;;3.95;46.61
61035;BME280;46916;40.564;-7.958;2023-02-28T05:30:55;97848.09;;;3.93;46.64
61035;BME280;46916;40.564;-7.958;2023-02-28T05:32:56;97849.78;;;3.94;46.55
61035;BME280;46916;40.564;-7.958;2023-02-28T05:34:57;97848.84;;;3.95;47.11
61035;BME280;46916;40.564;-7.958;2023-02-28T05:36:57;97848.25;;;3.90;46.46
61035;BME280;46916;40.564;-7.958;2023-02-28T05:38:58;97848.94;;;3.94;46.90
61035;BME280;46916;40.564;-7.958;2023-02-28T05:40:59;97857.63;;;3.93;47.34
61035;BME280;46916;40.564;-7.958;2023-02-28T05:42:59;97853.38;;;3.92;47.18
61035;BME280;46916;40.564;-7.958;2023-02-28T05:45:00;97859.53;;;3.89;47.20
61035;BME280;46916;40.564;-7.958;2023-02-28T05:47:01;97867.06;;;3.94;46.35
61035;BME280;46916;40.564;-7.958;2023-02-28T05:49:02;97862.97;;;3.90;47.17
61035;BME280;46916;40.564;-7.958;2023-02-28T05:51:03;97859.00;;;3.83;47.22
61035;BME280;46916;40.564;-7.958;2023-02-28T05:53:05;97871.28;;;3.79;46.92
61035;BME280;46916;40.564;-7.958;2023-02-28T05:55:06;97873.88;;;3.79;47.59
61035;BME280;46916;40.564;-7.958;2023-02-28T05:57:07;97872.44;;;3.73;47.66
61035;BME280;46916;40.564;-7.958;2023-02-28T05:59:07;97882.69;;;3.75;47.72
61035;BME280;46916;40.564;-7.958;2023-02-28T06:03:34;97886.44;;;3.87;47.33
61035;BME280;46916;40.564;-7.958;2023-02-28T06:05:35;97895.13;;;3.86;47.19
61035;BME280;46916;40.564;-7.958;2023-02-28T06:07:36;97896.19;;;3.82;47.47
61035;BME280;46916;40.564;-7.958;2023-02-28T06:09:37;97900.31;;;3.86;47.45
61035;BME280;46916;40.564;-7.958;2023-02-28T06:11:38;97901.09;;;3.88;47.31
61035;BME280;46916;40.564;-7.958;2023-02-28T06:13:39;97902.75;;;3.89;47.02
61035;BME280;46916;40.564;-7.958;2023-02-28T06:15:39;97905.66;;;3.83;47.56
61035;BME280;46916;40.564;-7.958;2023-02-28T06:17:42;97909.06;;;3.83;47.38
61035;BME280;46916;40.564;-7.958;2023-02-28T06:19:43;97907.94;;;3.89;47.68
61035;BME280;46916;40.564;-7.958;2023-02-28T06:21:44;97921.03;;;3.86;47.62
61035;BME280;46916;40.564;-7.958;2023-02-28T06:23:45;97914.34;;;3.82;47.43
61035;BME280;46916;40.564;-7.958;2023-02-28T06:25:46;97915.13;;;3.84;47.51
61035;BME280;46916;40.564;-7.958;2023-02-28T06:27:47;97912.28;;;3.88;47.48
61035;BME280;46916;40.564;-7.958;2023-02-28T06:29:48;97918.00;;;3.95;47.37
61035;BME280;46916;40.564;-7.958;2023-02-28T06:31:49;97920.53;;;3.96;47.13
61035;BME280;46916;40.564;-7.958;2023-02-28T06:33:50;97924.19;;;3.92;47.36
61035;BME280;46916;40.564;-7.958;2023-02-28T06:35:51;97926.09;;;3.89;47.71
61035;BME280;46916;40.564;-7.958;2023-02-28T06:37:52;97925.94;;;3.92;47.28
61035;BME280;46916;40.564;-7.958;2023-02-28T06:39:53;97934.59;;;3.91;47.13
61035;BME280;46916;40.564;-7.958;2023-02-28T06:41:56;97938.44;;;3.84;47.07
61035;BME280;46916;40.564;-7.958;2023-02-28T06:43:56;97936.13;;;3.78;47.82
61035;BME280;46916;40.564;-7.958;2023-02-28T06:46:00;97936.03;;;3.79;47.88
61035;BME280;46916;40.564;-7.958;2023-02-28T06:48:01;97942.09;;;3.80;47.50
61035;BME280;46916;40.564;-7.958;2023-02-28T06:50:03;97946.13;;;3.85;47.56
61035;BME280;46916;40.564;-7.958;2023-02-28T06:52:04;97948.47;;;3.90;47.83
61035;BME280;46916;40.564;-7.958;2023-02-28T06:54:05;97935.44;;;3.91;47.43
61035;BME280;46916;40.564;-7.958;2023-02-28T06:56:14;97933.72;;;3.92;47.62
61035;BME280;46916;40.564;-7.958;2023-02-28T06:58:15;97926.81;;;3.91;47.78
61035;BME280;46916;40.564;-7.958;2023-02-28T07:00:16;97931.13;;;3.92;47.95
61035;BME280;46916;40.564;-7.958;2023-02-28T07:02:16;97935.28;;;3.94;47.33
61035;BME280;46916;40.564;-7.958;2023-02-28T07:04:17;97931.50;;;3.84;47.75
61035;BME280;46916;40.564;-7.958;2023-02-28T07:06:19;97938.72;;;3.78;48.06
61035;BME280;46916;40.564;-7.958;2023-02-28T07:08:19;97936.22;;;3.76;47.77
61035;BME280;46916;40.564;-7.958;2023-02-28T07:10:20;97936.44;;;3.71;48.01
61035;BME280;46916;40.564;-7.958;2023-02-28T07:12:21;97939.09;;;3.70;48.29
61035;BME280;46916;40.564;-7.958;2023-02-28T07:14:22;97942.84;;;3.64;47.75
61035;BME280;46916;40.564;-7.958;2023-02-28T07:16:23;97940.25;;;3.64;48.43
61035;BME280;46916;40.564;-7.958;2023-02-28T07:18:24;97941.91;;;3.65;48.41
61035;BME280;46916;40.564;-7.958;2023-02-28T07:20:25;97945.06;;;3.72;48.17
61035;BME280;46916;40.564;-7.958;2023-02-28T07:22:26;97943.53;;;3.68;48.36
61035;BME280;46916;40.564;-7.958;2023-02-28T07:24:26;97939.66;;;3.77;48.17
61035;BME280;46916;40.564;-7.958;2023-02-28T07:26:28;97946.41;;;3.79;48.14
61035;BME280;46916;40.564;-7.958;2023-02-28T07:28:29;97945.81;;;3.91;48.23
61035;BME280;46916;40.564;-7.958;2023-02-28T07:30:30;97944.44;;;4.02;47.42
61035;BME280;46916;40.564;-7.958;2023-02-28T07:32:30;97943.22;;;4.09;47.23
61035;BME280;46916;40.564;-7.958;2023-02-28T07:34:31;97947.72;;;4.22;47.53
61035;BME280;46916;40.564;-7.958;2023-02-28T07:36:32;97947.88;;;4.37;46.65
61035;BME280;46916;40.564;-7.958;2023-02-28T07:38:36;97953.94;;;4.53;46.79
61035;BME280;46916;40.564;-7.958;2023-02-28T07:40:37;97959.47;;;4.63;46.67
61035;BME280;46916;40.564;-7.958;2023-02-28T07:42:39;97949.44;;;4.72;46.73
61035;BME280;46916;40.564;-7.958;2023-02-28T07:44:40;97955.69;;;4.86;46.28
61035;BME280;46916;40.564;-7.958;2023-02-28T07:46:41;97957.63;;;4.98;46.14
61035;BME280;46916;40.564;-7.958;2023-02-28T07:48:42;97959.03;;;5.04;45.45
61035;BME280;46916;40.564;-7.958;2023-02-28T07:50:42;97962.16;;;5.10;45.52
61035;BME280;46916;40.564;-7.958;2023-02-28T07:52:43;97956.34;;;5.21;45.52
61035;BME280;46916;40.564;-7.958;2023-02-28T07:54:44;97961.72;;;5.34;44.98
61035;BME280;46916;40.564;-7.958;2023-02-28T07:56:44;97968.09;;;5.44;45.06
61035;BME280;46916;40.564;-7.958;2023-02-28T07:58:45;97968.41;;;5.54;44.46
61035;BME280;46916;40.564;-7.958;2023-02-28T08:00:46;97967.03;;;5.78;47.59
61035;BME280;46916;40.564;-7.958;2023-02-28T08:02:46;97976.16;;;6.01;45.32
61035;BME280;46916;40.564;-7.958;2023-02-28T08:04:47;97970.81;;;6.18;46.93
61035;BME280;46916;40.564;-7.958;2023-02-28T08:06:48;97979.13;;;6.25;43.99
61035;BME280;46916;40.564;-7.958;2023-02-28T08:08:52;97980.50;;;6.31;43.41
61035;BME280;46916;40.564;-7.958;2023-02-28T08:10:53;97979.22;;;6.38;43.67
61035;BME280;46916;40.564;-7.958;2023-02-28T08:12:54;97978.03;;;6.43;42.72
61035;BME280;46916;40.564;-7.958;2023-02-28T08:14:54;97985.00;;;6.43;43.00
61035;BME280;46916;40.564;-7.958;2023-02-28T08:16:55;97986.88;;;6.55;43.34
61035;BME280;46916;40.564;-7.958;2023-02-28T08:18:56;97985.66;;;6.61;42.92
61035;BME280;46916;40.564;-7.958;2023-02-28T08:20:56;97985.78;;;6.74;42.83
61035;BME280;46916;40.564;-7.958;2023-02-28T08:22:57;97985.22;;;6.83;42.18
61035;BME280;46916;40.564;-7.958;2023-02-28T08:24:58;97995.25;;;6.89;41.83
61035;BME280;46916;40.564;-7.958;2023-02-28T08:26:59;97990.16;;;6.87;41.57
61035;BME280;46916;40.564;-7.958;2023-02-28T08:28:59;97990.03;;;6.89;42.19
61035;BME280;46916;40.564;-7.958;2023-02-28T08:31:00;97986.03;;;6.98;42.40
61035;BME280;46916;40.564;-7.958;2023-02-28T08:33:01;97994.03;;;7.09;42.86
61035;BME280;46916;40.564;-7.958;2023-02-28T08:35:02;97992.56;;;7.19;42.98
61035;BME280;46916;40.564;-7.958;2023-02-28T08:37:03;97990.03;;;7.32;41.22
61035;BME280;46916;40.564;-7.958;2023-02-28T08:39:05;97998.84;;;7.29;41.88
61035;BME280;46916;40.564;-7.958;2023-02-28T08:41:09;97992.25;;;7.24;41.71
61035;BME280;46916;40.564;-7.958;2023-02-28T08:43:10;97996.72;;;7.22;41.73
61035;BME280;46916;40.564;-7.958;2023-02-28T08:45:11;98000.16;;;7.22;42.52
61035;BME280;46916;40.564;-7.958;2023-02-28T08:47:12;98008.56;;;7.27;41.57
61035;BME280;46916;40.564;-7.958;2023-02-28T08:49:13;98007.72;;;7.27;41.44
61035;BME280;46916;40.564;-7.958;2023-02-28T08:51:16;98011.06;;;7.29;41.75
61035;BME280;46916;40.564;-7.958;2023-02-28T08:53:18;98011.41;;;7.37;41.59
61035;BME280;46916;40.564;-7.958;2023-02-28T08:55:19;98011.22;;;7.40;41.52
61035;BME280;46916;40.564;-7.958;2023-02-28T08:57:20;98009.16;;;7.45;41.30
61035;BME280;46916;40.564;-7.958;2023-02-28T08:59:20;98007.09;;;7.50;41.31
61035;BME280;46916;40.564;-7.958;2023-02-28T09:01:24;98010.19;;;7.42;41.95
61035;BME280;46916;40.564;-7.958;2023-02-28T09:03:24;98009.44;;;7.40;41.63
61035;BME280;46916;40.564;-7.958;2023-02-28T09:05:27;98014.91;;;7.50;42.42
61035;BME280;46916;40.564;-7.958;2023-02-28T09:07:29;98013.13;;;7.65;40.92
61035;BME280;46916;40.564;-7.958;2023-02-28T09:09:30;98013.91;;;7.53;41.78
61035;BME280;46916;40.564;-7.958;2023-02-28T09:11:30;98012.66;;;7.58;41.05
61035;BME280;46916;40.564;-7.958;2023-02-28T09:13:31;98017.75;;;7.47;41.68
61035;BME280;46916;40.564;-7.958;2023-02-28T09:15:32;98016.25;;;7.43;41.80
61035;BME280;46916;40.564;-7.958;2023-02-28T09:17:33;98024.69;;;7.47;41.81
61035;BME280;46916;40.564;-7.958;2023-02-28T09:19:34;98025.63;;;7.45;42.32
61035;BME280;46916;40.564;-7.958;2023-02-28T09:21:35;98027.03;;;7.51;42.09
61035;BME280;46916;40.564;-7.958;2023-02-28T09:23:36;98028.53;;;7.55;42.31
61035;BME280;46916;40.564;-7.958;2023-02-28T09:25:51;98035.56;;;7.67;41.67
61035;BME280;46916;40.564;-7.958;2023-02-28T09:27:52;98035.34;;;7.70;41.73
61035;BME280;46916;40.564;-7.958;2023-02-28T09:29:53;98029.59;;;7.65;42.34
61035;BME280;46916;40.564;-7.958;2023-02-28T09:31:54;98028.44;;;7.84;41.05
61035;BME280;46916;40.564;-7.958;2023-02-28T09:33:57;98023.78;;;7.75;41.18
61035;BME280;46916;40.564;-7.958;2023-02-28T09:35:59;98022.13;;;7.74;41.82
61035;BME280;46916;40.564;-7.958;2023-02-28T09:38:01;98024.53;;;7.77;41.08
61035;BME280;46916;40.564;-7.958;2023-02-28T09:40:03;98020.81;;;7.81;41.53
61035;BME280;46916;40.564;-7.958;2023-02-28T09:42:04;98020.09;;;7.91;41.50
61035;BME280;46916;40.564;-7.958;2023-02-28T09:44:10;98009.59;;;7.93;41.29
61035;BME280;46916;40.564;-7.958;2023-02-28T09:48:23;98025.50;;;8.15;40.99
61035;BME280;46916;40.564;-7.958;2023-02-28T09:52:30;98015.66;;;8.33;40.58
61035;BME280;46916;40.564;-7.958;2023-02-28T09:54:33;98012.06;;;8.22;40.79
61035;BME280;46916;40.564;-7.958;2023-02-28T09:56:39;98015.00;;;8.30;40.88
61035;BME280;46916;40.564;-7.958;2023-02-28T10:01:40;98017.78;;;8.41;39.72
61035;BME280;46916;40.564;-7.958;2023-02-28T10:06:15;98026.66;;;8.38;39.62
61035;BME280;46916;40.564;-7.958;2023-02-28T10:08:31;98025.88;;;8.36;40.11
61035;BME280;46916;40.564;-7.958;2023-02-28T10:10:40;98018.16;;;8.35;40.10
61035;BME280;46916;40.564;-7.958;2023-02-28T10:12:44;98014.50;;;8.25;40.29
61035;BME280;46916;40.564;-7.958;2023-02-28T10:14:49;98005.72;;;8.26;39.93
61035;BME280;46916;40.564;-7.958;2023-02-28T10:20:58;98013.03;;;8.33;39.73
61035;BME280;46916;40.564;-7.958;2023-02-28T10:23:20;98007.91;;;8.32;39.86
61035;BME280;46916;40.564;-7.958;2023-02-28T10:25:26;98006.41;;;8.42;39.56
61035;BME280;46916;40.564;-7.958;2023-02-28T10:27:31;98007.53;;;8.38;39.97
61035;BME280;46916;40.564;-7.958;2023-02-28T10:29:32;98015.41;;;8.36;39.91
61035;BME280;46916;40.564;-7.958;2023-02-28T10:31:33;98015.59;;;8.48;39.50
61035;BME280;46916;40.564;-7.958;2023-02-28T10:33:35;98007.34;;;8.41;39.46
61035;BME280;46916;40.564;-7.958;2023-02-28T10:35:35;97999.88;;;8.35;40.26
61035;BME280;46916;40.564;-7.958;2023-02-28T10:37:43;98000.16;;;8.57;40.13
61035;BME280;46916;40.564;-7.958;2023-02-28T10:39:46;98000.25;;;8.68;39.63
61035;BME280;46916;40.564;-7.958;2023-02-28T10:41:47;98000.25;;;8.68;39.51
61035;BME280;46916;40.564;-7.958;2023-02-28T10:43:48;97989.91;;;8.80;39.73
61035;BME280;46916;40.564;-7.958;2023-02-28T10:45:55;97992.22;;;8.84;38.64
61035;BME280;46916;40.564;-7.958;2023-02-28T10:47:59;97999.00;;;8.87;39.22
61035;BME280;46916;40.564;-7.958;2023-02-28T10:50:01;97995.25;;;8.91;38.47
61035;BME280;46916;40.564;-7.958;2023-02-28T10:52:02;97986.91;;;8.86;39.11
61035;BME280;46916;40.564;-7.958;2023-02-28T10:54:03;97979.88;;;8.99;39.03
61035;BME280;46916;40.564;-7.958;2023-02-28T10:58:23;97974.00;;;9.08;37.88
61035;BME280;46916;40.564;-7.958;2023-02-28T11:00:24;97986.88;;;8.99;38.25
61035;BME280;46916;40.564;-7.958;2023-02-28T11:02:31;97992.75;;;9.02;38.18
61035;BME280;46916;40.564;-7.958;2023-02-28T11:04:35;97974.22;;;9.05;38.75
61035;BME280;46916;40.564;-7.958;2023-02-28T11:06:37;97983.72;;;9.19;38.64
61035;BME280;46916;40.564;-7.958;2023-02-28T11:08:45;97994.78;;;9.23;38.59
61035;BME280;46916;40.564;-7.958;2023-02-28T11:10:48;97995.38;;;9.39;38.31
61035;BME280;46916;40.564;-7.958;2023-02-28T11:12:55;97975.94;;;9.43;37.68
61035;BME280;46916;40.564;-7.958;2023-02-28T11:15:06;97975.94;;;9.43;37.38
61035;BME280;46916;40.564;-7.958;2023-02-28T11:17:22;97964.88;;;9.51;37.05
61035;BME280;46916;40.564;-7.958;2023-02-28T11:19:35;97974.63;;;9.49;36.85
61035;BME280;46916;40.564;-7.958;2023-02-28T11:21:39;97982.06;;;9.42;36.98
61035;BME280;46916;40.564;-7.958;2023-02-28T11:23:41;97968.72;;;9.34;37.29
61035;BME280;46916;40.564;-7.958;2023-02-28T11:25:47;97974.84;;;9.46;37.48
61035;BME280;46916;40.564;-7.958;2023-02-28T11:27:53;97959.22;;;9.33;37.15
61035;BME280;46916;40.564;-7.958;2023-02-28T11:29:54;97955.88;;;9.31;37.22
61035;BME280;46916;40.564;-7.958;2023-02-28T11:34:24;97950.31;;;9.35;37.81
61035;BME280;46916;40.564;-7.958;2023-02-28T11:36:29;97955.94;;;9.42;37.66